Time;durP1;ratioP1;P1;durP2;ratioP2;P2;SDS_P1;SDS_P2;PMS_P1;PMS_P2;Temp;Humidity;BMP_temperature;BMP_pressure;BME280_temperature;BME280_humidity;BME280_pressure;Samples;Min_cycle;Max_cycle;Signal;HPM_P1;HPM_P2
2023/01/11 00:01:06;;;;;;;6.15;1.77;;;18.10;54.20;;;;;;5112887;28;20230;-72
2023/01/11 00:03:35;;;;;;;6.88;1.90;;;18.10;54.10;;;;;;5112660;28;20278;-73
2023/01/11 00:06:03;;;;;;;6.95;1.83;;;18.10;54.10;;;;;;5095015;28;20189;-72
2023/01/11 00:08:31;;;;;;;3.92;1.67;;;18.10;54.10;;;;;;5112942;28;20266;-72
2023/01/11 00:11:01;;;;;;;8.90;1.80;;;18.10;54.20;;;;;;5112493;28;20193;-73
2023/01/11 00:13:28;;;;;;;10.82;2.13;;;18.10;54.30;;;;;;5112800;28;20249;-74
2023/01/11 00:15:55;;;;;;;10.00;2.17;;;18.10;54.30;;;;;;5077729;28;20185;-72
2023/01/11 00:18:22;;;;;;;10.48;2.22;;;18.10;54.30;;;;;;5112580;28;20286;-73
2023/01/11 00:20:52;;;;;;;7.75;2.33;;;18.10;54.30;;;;;;5112540;28;20238;-73
2023/01/11 00:23:19;;;;;;;9.63;2.50;;;18.10;54.30;;;;;;5094324;28;20217;-73
2023/01/11 00:25:46;;;;;;;7.35;2.10;;;18.10;54.30;;;;;;5112329;28;20265;-72
2023/01/11 00:28:14;;;;;;;8.85;2.30;;;18.10;54.30;;;;;;5112406;28;20637;-73
2023/01/11 00:30:41;;;;;;;5.50;2.20;;;18.10;54.30;;;;;;5112667;28;20292;-72
2023/01/11 00:33:11;;;;;;;6.68;1.88;;;18.00;54.30;;;;;;5112243;28;20266;-72
2023/01/11 00:35:38;;;;;;;8.85;2.22;;;18.10;54.40;;;;;;5112655;28;20189;-73
2023/01/11 00:38:07;;;;;;;7.90;2.30;;;18.10;54.30;;;;;;5116491;28;20209;-72
2023/01/11 00:40:34;;;;;;;10.05;2.28;;;18.10;54.30;;;;;;5116544;28;20186;-72
2023/01/11 00:48:39;;;;;;;8.25;2.38;;;18.00;54.30;;;;;;5079316;28;20220;-73
2023/01/11 00:51:06;;;;;;;8.98;2.15;;;18.00;54.30;;;;;;5116348;28;20242;-73
2023/01/11 00:53:34;;;;;;;6.72;2.30;;;18.00;54.30;;;;;;5115676;28;20229;-73
2023/01/11 00:56:01;;;;;;;9.45;2.50;;;18.00;54.30;;;;;;5116187;28;20684;-73
2023/01/11 00:58:29;;;;;;;10.13;2.55;;;18.00;54.30;;;;;;5098295;28;20221;-73
2023/01/11 01:00:57;;;;;;;9.68;3.05;;;18.00;54.30;;;;;;5097937;28;20223;-73
2023/01/11 01:03:24;;;;;;;9.13;2.15;;;18.00;54.30;;;;;;5080906;28;20217;-73
2023/01/11 01:05:55;;;;;;;7.85;2.67;;;18.00;54.30;;;;;;5115764;28;20238;-73
2023/01/11 01:08:22;;;;;;;11.23;2.53;;;18.00;54.30;;;;;;5115707;28;20705;-73
2023/01/11 01:10:53;;;;;;;9.77;2.47;;;17.90;54.30;;;;;;5097702;28;20748;-72
2023/01/11 01:16:05;;;;;;;9.40;2.40;;;18.00;54.30;;;;;;5115601;28;20324;-74
2023/01/11 01:18:32;;;;;;;8.32;2.20;;;17.90;54.30;;;;;;5115810;28;20221;-73
2023/01/11 01:20:59;;;;;;;9.73;2.25;;;17.90;54.30;;;;;;5115519;28;20838;-72
2023/01/11 01:23:27;;;;;;;10.02;2.58;;;18.00;54.40;;;;;;5097145;28;20217;-73
2023/01/11 01:25:55;;;;;;;9.90;2.17;;;17.90;54.30;;;;;;5115616;28;20189;-72
2023/01/11 01:28:24;;;;;;;11.90;2.72;;;17.90;54.30;;;;;;5115777;28;20213;-72
2023/01/11 01:30:51;;;;;;;7.70;2.15;;;17.90;54.30;;;;;;5115605;28;20285;-72
2023/01/11 01:33:18;;;;;;;11.45;2.50;;;17.90;54.30;;;;;;5115540;28;20282;-72
2023/01/11 01:35:45;;;;;;;11.10;2.80;;;17.90;54.30;;;;;;5115476;28;20238;-72
2023/01/11 01:38:13;;;;;;;11.43;2.08;;;17.90;54.30;;;;;;5115084;28;20213;-72
2023/01/11 01:40:41;;;;;;;8.98;2.33;;;17.90;54.40;;;;;;5115260;28;20716;-73
2023/01/11 01:43:12;;;;;;;10.45;2.30;;;17.90;54.30;;;;;;5115344;28;20213;-72
2023/01/11 01:45:40;;;;;;;12.13;2.50;;;17.90;54.30;;;;;;5115206;28;20193;-73
2023/01/11 01:48:10;;;;;;;11.50;2.65;;;17.90;54.30;;;;;;5114506;28;20217;-72
2023/01/11 01:50:42;;;;;;;11.23;2.95;;;17.90;54.30;;;;;;5115108;28;20238;-73
2023/01/11 01:53:13;;;;;;;11.70;2.45;;;17.90;54.30;;;;;;5114959;28;20228;-74
2023/01/11 01:55:44;;;;;;;10.60;2.80;;;17.90;54.30;;;;;;5114702;28;20239;-73
2023/01/11 01:58:18;;;;;;;8.77;2.10;;;17.80;54.30;;;;;;5096567;28;20270;-72
2023/01/11 02:00:46;;;;;;;8.45;2.33;;;17.90;54.40;;;;;;5096950;28;20750;-73
2023/01/11 02:03:17;;;;;;;9.57;2.35;;;17.90;54.30;;;;;;5114453;28;20213;-73
2023/01/11 02:05:44;;;;;;;8.80;2.10;;;17.80;54.30;;;;;;5114669;28;20230;-73
2023/01/11 02:08:20;;;;;;;9.98;2.95;;;17.80;54.30;;;;;;5096913;28;20270;-72
2023/01/11 02:10:48;;;;;;;13.40;2.60;;;17.80;54.30;;;;;;5114769;28;20608;-73
2023/01/11 02:13:17;;;;;;;9.05;2.28;;;17.80;54.30;;;;;;5114707;28;20278;-73
2023/01/11 02:15:45;;;;;;;12.18;2.78;;;17.80;54.30;;;;;;5096640;28;20232;-74
2023/01/11 02:18:13;;;;;;;8.93;2.40;;;17.80;54.30;;;;;;5080037;28;20217;-73
2023/01/11 02:20:59;;;;;;;10.02;2.63;;;17.80;54.30;;;;;;5096685;28;20249;-73
2023/01/11 02:23:59;;;;;;;10.75;2.75;;;17.80;54.30;;;;;;5114654;28;20213;-73
2023/01/11 02:26:58;;;;;;;9.82;2.55;;;17.80;54.40;;;;;;5111052;28;20242;-74
2023/01/11 02:29:40;;;;;;;9.23;2.45;;;17.80;54.40;;;;;;5113783;28;20865;-73
2023/01/11 02:32:24;;;;;;;9.10;2.42;;;17.80;54.30;;;;;;5114321;28;20234;-73
2023/01/11 02:35:08;;;;;;;10.93;2.55;;;17.80;54.40;;;;;;5113930;28;20185;-73
2023/01/11 02:37:47;;;;;;;12.00;3.10;;;17.80;54.40;;;;;;5114192;28;20213;-74
2023/01/11 02:40:21;;;;;;;10.07;2.20;;;17.80;54.40;;;;;;5113755;28;20212;-75
2023/01/11 02:45:46;;;;;;;8.27;2.10;;;17.80;54.40;;;;;;5113900;28;20177;-76
2023/01/11 02:48:26;;;;;;;9.50;2.50;;;17.80;54.40;;;;;;5114051;28;20217;-73
2023/01/11 02:51:02;;;;;;;10.57;2.33;;;17.80;54.30;;;;;;5113645;28;20242;-73
2023/01/11 02:53:35;;;;;;;9.63;2.42;;;17.80;54.30;;;;;;5113678;28;20261;-73
2023/01/11 02:56:07;;;;;;;9.35;2.38;;;17.70;54.30;;;;;;5096425;28;20226;-73
2023/01/11 02:58:40;;;;;;;11.00;2.58;;;17.70;54.30;;;;;;5113086;28;20213;-73
2023/01/11 03:01:10;;;;;;;9.98;2.50;;;17.80;54.30;;;;;;5113612;28;20198;-73
2023/01/11 03:03:38;;;;;;;11.20;2.60;;;17.70;54.30;;;;;;5113350;28;20266;-73
2023/01/11 03:06:08;;;;;;;11.48;2.65;;;17.70;54.30;;;;;;5113389;28;20234;-72
2023/01/11 03:08:57;;;;;;;7.53;2.22;;;17.70;54.30;;;;;;5095391;28;20266;-73
2023/01/11 03:14:28;;;;;;;12.27;2.60;;;17.70;54.20;;;;;;5113198;28;20219;-72
2023/01/11 03:17:10;;;;;;;12.05;2.70;;;17.70;54.20;;;;;;5113161;28;20600;-72
2023/01/11 03:19:44;;;;;;;11.43;3.05;;;17.70;54.20;;;;;;5113363;28;20260;-73
2023/01/11 03:22:18;;;;;;;6.68;2.33;;;17.70;54.20;;;;;;5113343;28;20189;-73
2023/01/11 03:24:50;;;;;;;12.07;2.90;;;17.70;54.20;;;;;;5113341;28;20249;-72
2023/01/11 03:27:26;;;;;;;9.77;2.10;;;17.70;54.20;;;;;;5094768;28;20201;-73
2023/01/11 03:30:03;;;;;;;8.73;2.20;;;17.70;54.20;;;;;;5113248;28;20188;-73
2023/01/11 03:32:42;;;;;;;9.80;2.13;;;17.70;54.20;;;;;;5112935;28;20185;-72
2023/01/11 03:35:18;;;;;;;9.02;2.60;;;17.60;54.10;;;;;;5094841;28;20193;-73
2023/01/11 03:37:51;;;;;;;11.75;2.58;;;17.70;54.20;;;;;;5113087;28;20274;-73
2023/01/11 03:40:24;;;;;;;9.07;2.40;;;17.60;54.10;;;;;;5095144;28;20258;-72
2023/01/11 03:43:13;;;;;;;10.27;2.72;;;17.70;54.10;;;;;;5113036;28;20224;-73
2023/01/11 03:45:47;;;;;;;17.95;3.28;;;17.70;54.10;;;;;;5113235;28;20681;-73
2023/01/11 03:48:21;;;;;;;6.85;2.10;;;17.60;54.10;;;;;;5113121;28;20221;-73
2023/01/11 03:50:51;;;;;;;11.05;2.58;;;17.60;54.00;;;;;;5112595;28;20599;-72
2023/01/11 03:53:21;;;;;;;9.18;2.40;;;17.60;54.00;;;;;;5112777;28;20217;-72
2023/01/11 03:55:52;;;;;;;9.70;2.60;;;17.60;54.00;;;;;;5112687;28;20234;-72
2023/01/11 03:58:19;;;;;;;10.38;2.55;;;17.60;54.00;;;;;;5094620;28;20244;-73
2023/01/11 04:00:47;;;;;;;13.57;2.65;;;17.60;54.00;;;;;;5112538;28;20221;-73
2023/01/11 04:03:16;;;;;;;10.57;2.78;;;17.60;54.00;;;;;;5112878;28;20217;-73
2023/01/11 04:05:46;;;;;;;11.65;2.97;;;17.60;54.00;;;;;;5112721;28;20246;-73
2023/01/11 04:08:14;;;;;;;12.15;2.35;;;17.60;54.00;;;;;;5094471;28;20701;-73
2023/01/11 04:10:41;;;;;;;8.85;2.50;;;17.60;53.90;;;;;;5096493;28;20189;-73
2023/01/11 04:13:08;;;;;;;10.75;2.70;;;17.60;53.90;;;;;;5117118;28;20258;-72
2023/01/11 04:15:35;;;;;;;12.43;2.72;;;17.60;53.90;;;;;;5116666;28;20739;-73
2023/01/11 04:18:04;;;;;;;10.23;2.75;;;17.60;53.90;;;;;;5086888;28;20251;-73
2023/01/11 04:20:34;;;;;;;11.65;2.53;;;17.60;53.90;;;;;;5109977;28;20239;-72
2023/01/11 04:23:02;;;;;;;9.45;2.30;;;17.60;53.90;;;;;;5098349;28;20212;-72
2023/01/11 04:25:29;;;;;;;15.02;2.80;;;17.60;53.90;;;;;;5116757;28;20189;-72
2023/01/11 04:27:56;;;;;;;12.85;2.65;;;17.60;53.90;;;;;;5116412;28;20258;-73
2023/01/11 04:30:24;;;;;;;11.20;3.10;;;17.60;53.90;;;;;;5116513;28;20266;-72
2023/01/11 04:32:51;;;;;;;7.80;2.78;;;17.60;53.80;;;;;;5116511;28;20220;-72
2023/01/11 04:35:18;;;;;;;9.80;2.25;;;17.60;53.90;;;;;;5098404;28;20189;-72
2023/01/11 04:37:47;;;;;;;7.38;2.70;;;17.60;53.80;;;;;;5097795;28;20729;-72
2023/01/11 04:40:15;;;;;;;10.73;2.90;;;17.50;53.80;;;;;;5116086;28;20273;-72
2023/01/11 04:42:41;;;;;;;11.30;2.58;;;17.60;53.80;;;;;;5098227;28;20300;-73
2023/01/11 04:45:10;;;;;;;10.50;2.58;;;17.60;53.80;;;;;;5116211;28;20185;-72
2023/01/11 04:47:37;;;;;;;14.43;2.53;;;17.60;53.90;;;;;;5116345;28;20230;-72
2023/01/11 04:50:05;;;;;;;12.52;2.78;;;17.50;53.70;;;;;;5113049;28;20189;-72
2023/01/11 04:52:32;;;;;;;8.77;2.45;;;17.50;53.70;;;;;;5113039;28;20608;-73
2023/01/11 04:55:01;;;;;;;9.50;3.15;;;17.50;53.70;;;;;;5116101;28;20778;-73
2023/01/11 04:57:28;;;;;;;14.65;2.70;;;17.50;53.70;;;;;;5098189;28;20196;-72
2023/01/11 04:59:56;;;;;;;14.27;2.88;;;17.50;53.70;;;;;;5097784;28;20221;-73
2023/01/11 05:02:23;;;;;;;10.90;3.10;;;17.50;53.70;;;;;;5115495;28;20662;-72
2023/01/11 05:04:50;;;;;;;10.98;2.83;;;17.50;53.70;;;;;;5116100;28;20204;-72
2023/01/11 05:07:17;;;;;;;11.43;2.60;;;17.50;53.70;;;;;;5115681;28;20182;-72
2023/01/11 05:09:44;;;;;;;11.57;2.75;;;17.50;53.70;;;;;;5115970;28;20220;-73
2023/01/11 05:12:13;;;;;;;12.20;2.65;;;17.50;53.70;;;;;;5115554;28;20719;-73
2023/01/11 05:14:40;;;;;;;13.23;3.17;;;17.50;53.70;;;;;;5115609;28;20217;-72
2023/01/11 05:17:08;;;;;;;12.40;2.63;;;17.50;53.70;;;;;;5097476;28;20239;-73
2023/01/11 05:19:35;;;;;;;11.05;2.65;;;17.50;53.70;;;;;;5115599;28;20216;-72
2023/01/11 05:22:03;;;;;;;10.63;2.45;;;17.50;53.70;;;;;;5115031;28;20284;-73
2023/01/11 05:24:30;;;;;;;13.40;2.95;;;17.50;53.60;;;;;;5115912;28;20262;-73
2023/01/11 05:26:57;;;;;;;10.38;3.00;;;17.50;53.60;;;;;;5115573;28;20182;-72
2023/01/11 05:29:26;;;;;;;12.30;3.10;;;17.50;53.60;;;;;;5115663;28;20209;-72
2023/01/11 05:31:53;;;;;;;9.40;2.55;;;17.50;53.60;;;;;;5115407;28;20181;-72
2023/01/11 05:34:20;;;;;;;12.82;2.83;;;17.50;53.60;;;;;;5115628;28;20213;-73
2023/01/11 05:36:47;;;;;;;10.60;2.70;;;17.40;53.50;;;;;;5115134;28;20647;-72
2023/01/11 05:39:15;;;;;;;12.18;2.92;;;17.50;53.60;;;;;;5115464;28;20213;-72
2023/01/11 05:41:42;;;;;;;10.73;3.00;;;17.50;54.30;;;;;;5114796;28;20758;-71
2023/01/11 05:46:59;;;;;;;12.45;3.00;;;17.50;53.70;;;;;;5114957;28;20264;-72
2023/01/11 05:49:27;;;;;;;12.98;3.10;;;17.50;53.70;;;;;;5115056;28;20220;-72
2023/01/11 05:51:54;;;;;;;11.10;3.10;;;17.50;53.70;;;;;;5096825;28;20223;-73
2023/01/11 05:54:21;;;;;;;12.60;3.22;;;17.50;53.60;;;;;;5114630;28;20225;-72
2023/01/11 05:56:48;;;;;;;7.85;2.42;;;17.50;53.60;;;;;;5115244;28;20193;-72
2023/01/11 05:59:15;;;;;;;12.82;3.53;;;17.50;53.60;;;;;;5080059;28;20637;-72
2023/01/11 06:01:43;;;;;;;11.65;3.10;;;17.50;53.60;;;;;;5114829;28;20247;-74
2023/01/11 06:04:11;;;;;;;9.40;2.38;;;17.60;53.70;;;;;;5114988;28;20217;-72
2023/01/11 06:06:39;;;;;;;9.13;2.30;;;17.60;53.70;;;;;;5114635;28;20654;-72
2023/01/11 06:09:06;;;;;;;10.27;2.90;;;17.60;53.60;;;;;;5114853;28;20548;-72
2023/01/11 06:11:33;;;;;;;12.25;3.35;;;17.60;53.60;;;;;;5114723;28;20185;-73
2023/01/11 06:14:00;;;;;;;8.52;2.50;;;17.60;53.60;;;;;;5096120;28;20259;-72
2023/01/11 06:16:28;;;;;;;11.20;2.75;;;17.60;53.60;;;;;;5096444;28;20651;-73
2023/01/11 06:18:55;;;;;;;8.80;2.55;;;17.70;53.70;;;;;;5114536;28;20221;-72
2023/01/11 06:21:24;;;;;;;10.40;2.75;;;17.70;53.70;;;;;;5114596;28;20224;-72
2023/01/11 06:23:51;;;;;;;6.85;2.38;;;17.70;53.70;;;;;;5114133;28;20244;-73
2023/01/11 06:26:21;;;;;;;9.70;2.67;;;17.70;53.70;;;;;;5096146;28;20200;-72
2023/01/11 06:28:49;;;;;;;10.20;3.03;;;17.70;53.70;;;;;;5114469;28;20228;-72
2023/01/11 06:31:17;;;;;;;10.02;2.28;;;17.80;53.70;;;;;;5114034;28;20234;-72
2023/01/11 06:33:45;;;;;;;10.75;2.85;;;17.80;53.70;;;;;;5112862;28;20243;-72
2023/01/11 06:36:13;;;;;;;7.03;2.47;;;17.80;53.80;;;;;;5114285;28;20197;-72
2023/01/11 06:38:43;;;;;;;10.85;2.67;;;17.80;53.70;;;;;;5095746;28;20240;-72
2023/01/11 06:41:11;;;;;;;8.23;2.30;;;17.80;53.70;;;;;;5114050;28;20213;-72
2023/01/11 06:43:40;;;;;;;9.93;2.58;;;17.80;53.70;;;;;;5114040;28;20213;-73
2023/01/11 06:46:11;;;;;;;10.15;2.60;;;17.80;53.80;;;;;;5095809;28;20210;-73
2023/01/11 06:48:38;;;;;;;12.40;2.40;;;17.90;53.90;;;;;;5113800;28;20244;-72
2023/01/11 06:51:05;;;;;;;8.43;2.50;;;17.90;53.80;;;;;;5113919;28;20193;-73
2023/01/11 06:53:33;;;;;;;8.13;2.38;;;17.90;53.80;;;;;;5113505;28;20232;-73
2023/01/11 06:56:01;;;;;;;11.77;2.80;;;17.90;53.80;;;;;;5114207;28;20197;-72
2023/01/11 06:58:29;;;;;;;9.90;2.80;;;17.90;53.80;;;;;;5114005;28;20213;-72
2023/01/11 07:00:57;;;;;;;8.98;2.40;;;17.90;53.70;;;;;;5113273;28;20216;-73
2023/01/11 07:03:25;;;;;;;8.90;2.20;;;17.90;53.70;;;;;;5113173;28;20698;-73
2023/01/11 07:05:53;;;;;;;7.45;2.25;;;17.90;53.70;;;;;;5113690;28;20242;-72
2023/01/11 07:08:20;;;;;;;7.90;2.30;;;18.00;53.70;;;;;;5113576;28;20217;-73
2023/01/11 07:10:48;;;;;;;13.60;2.50;;;18.00;53.70;;;;;;5095211;28;20228;-72
2023/01/11 07:13:17;;;;;;;8.82;2.17;;;18.00;53.60;;;;;;5113511;28;20262;-72
2023/01/11 07:15:47;;;;;;;9.23;3.03;;;18.00;53.60;;;;;;5113257;28;20250;-73
2023/01/11 07:18:14;;;;;;;7.93;2.50;;;18.00;53.50;;;;;;5113447;28;20217;-72
2023/01/11 07:20:42;;;;;;;6.70;2.35;;;18.00;53.50;;;;;;5113351;28;20205;-73
2023/01/11 07:23:10;;;;;;;9.05;2.47;;;18.00;53.50;;;;;;5113339;28;20265;-72
2023/01/11 07:25:37;;;;;;;8.55;2.35;;;18.00;53.50;;;;;;5113018;28;20598;-72
2023/01/11 07:28:06;;;;;;;9.00;2.35;;;18.10;53.50;;;;;;5094967;28;20863;-72
2023/01/11 07:30:37;;;;;;;9.15;2.30;;;18.00;53.40;;;;;;5112984;28;20193;-73
2023/01/11 07:33:06;;;;;;;8.48;2.10;;;18.00;53.30;;;;;;5112739;28;20682;-72
2023/01/11 07:35:33;;;;;;;11.88;2.58;;;18.10;53.40;;;;;;5113185;28;20185;-72
2023/01/11 07:38:01;;;;;;;7.50;1.70;;;18.10;53.40;;;;;;5113113;28;20277;-73
2023/01/11 07:40:29;;;;;;;6.93;1.83;;;18.00;53.20;;;;;;5112757;28;20656;-71
2023/01/11 07:45:44;;;;;;;9.82;2.40;;;18.10;53.20;;;;;;5112519;28;20705;-72
2023/01/11 07:48:11;;;;;;;8.45;2.38;;;18.10;53.20;;;;;;5106953;28;20266;-72
2023/01/11 07:50:40;;;;;;;11.77;2.20;;;18.10;53.00;;;;;;5074394;28;20201;-72
2023/01/11 07:53:08;;;;;;;12.90;3.17;;;18.10;52.80;;;;;;5091138;28;20255;-74
2023/01/11 07:55:38;;;;;;;9.95;2.88;;;18.10;52.70;;;;;;5112789;28;20193;-73
2023/01/11 07:58:05;;;;;;;7.60;2.20;;;18.10;52.50;;;;;;5094100;28;20234;-73
2023/01/11 08:00:33;;;;;;;9.45;2.47;;;18.20;52.60;;;;;;5112660;28;20607;-76
2023/01/11 08:03:02;;;;;;;9.35;2.28;;;18.10;52.50;;;;;;5104873;28;20900;-75
2023/01/11 08:05:30;;;;;;;6.50;2.10;;;18.20;52.70;;;;;;5110911;28;20532;-74
2023/01/11 08:07:57;;;;;;;9.20;2.65;;;18.20;52.60;;;;;;5106939;28;20197;-74
2023/01/11 08:10:25;;;;;;;8.73;2.28;;;18.20;52.60;;;;;;5104008;28;20295;-73
2023/01/11 08:15:41;;;;;;;8.80;1.95;;;18.20;52.40;;;;;;5066473;28;20254;-74
2023/01/11 08:18:12;;;;;;;8.43;2.05;;;18.30;52.60;;;;;;5091475;28;20231;-73
2023/01/11 08:20:40;;;;;;;9.15;2.08;;;18.30;52.50;;;;;;5073307;28;20533;-74
2023/01/11 08:23:10;;;;;;;10.23;2.38;;;18.30;52.60;;;;;;5091610;28;20186;-76
2023/01/11 08:25:38;;;;;;;11.35;2.92;;;18.30;52.40;;;;;;5091848;28;20562;-74
2023/01/11 08:28:07;;;;;;;8.02;2.30;;;18.40;52.50;;;;;;5101890;28;20190;-74
2023/01/11 08:30:35;;;;;;;7.97;2.22;;;18.40;52.30;;;;;;5091482;28;20706;-74
2023/01/11 08:33:03;;;;;;;8.70;2.20;;;18.40;52.30;;;;;;5056822;28;20687;-75
2023/01/11 08:35:37;;;;;;;4.03;1.88;;;18.40;52.90;;;;;;5073603;28;20210;-79
2023/01/11 08:38:04;;;;;;;12.10;2.40;;;18.40;52.20;;;;;;5091642;28;20757;-76
2023/01/11 08:40:31;;;;;;;8.52;2.53;;;18.40;52.10;;;;;;5091362;28;20194;-75
2023/01/11 08:42:59;;;;;;;6.75;1.85;;;18.40;52.00;;;;;;5091265;28;20648;-76
2023/01/11 08:45:26;;;;;;;7.75;1.92;;;18.40;52.00;;;;;;5091263;28;20186;-76
2023/01/11 08:47:54;;;;;;;8.60;2.05;;;18.40;52.10;;;;;;5091326;28;20194;-76
2023/01/11 08:50:23;;;;;;;5.95;1.88;;;18.40;52.10;;;;;;5091147;28;20568;-75
2023/01/11 08:52:54;;;;;;;7.40;1.85;;;18.40;52.10;;;;;;5091152;28;20273;-75
2023/01/11 08:55:21;;;;;;;9.82;2.05;;;18.50;52.20;;;;;;5091533;28;20695;-75
2023/01/11 08:57:48;;;;;;;6.72;1.90;;;18.50;52.00;;;;;;5074840;28;20725;-77
2023/01/11 09:00:17;;;;;;;7.03;2.03;;;18.50;51.90;;;;;;5095144;28;20275;-80
2023/01/11 09:02:45;;;;;;;10.85;2.25;;;18.50;52.00;;;;;;5076706;28;20226;-77
2023/01/11 09:05:12;;;;;;;8.93;2.50;;;18.60;51.90;;;;;;5113244;28;20225;-75
2023/01/11 09:07:40;;;;;;;9.70;2.30;;;18.60;51.70;;;;;;5097126;28;20185;-77
2023/01/11 09:10:10;;;;;;;6.15;2.25;;;18.50;51.70;;;;;;5079530;28;20746;-75
2023/01/11 09:12:37;;;;;;;8.35;2.30;;;18.50;51.70;;;;;;5114796;28;20181;-75
2023/01/11 09:15:05;;;;;;;9.10;2.17;;;18.60;51.70;;;;;;5114717;28;20624;-75
2023/01/11 09:17:33;;;;;;;9.75;2.33;;;18.60;51.60;;;;;;5108497;28;20206;-78
2023/01/11 09:20:01;;;;;;;9.02;2.15;;;18.60;51.60;;;;;;5114359;28;20597;-76
2023/01/11 09:22:28;;;;;;;8.02;1.98;;;18.60;51.50;;;;;;5114078;28;20844;-78
2023/01/11 09:24:57;;;;;;;8.10;2.00;;;18.60;51.40;;;;;;5114495;28;20221;-75
2023/01/11 09:27:26;;;;;;;6.60;1.85;;;18.60;51.30;;;;;;5114193;28;20198;-75
2023/01/11 09:29:54;;;;;;;6.13;2.00;;;18.70;51.40;;;;;;5114572;28;20240;-75
2023/01/11 09:32:21;;;;;;;6.05;2.13;;;18.60;51.30;;;;;;5092558;27;20578;-76
2023/01/11 09:34:52;;;;;;;9.02;2.15;;;18.60;51.30;;;;;;5114171;28;20221;-78
2023/01/11 09:37:21;;;;;;;8.52;1.98;;;18.70;51.30;;;;;;5096925;28;20193;-79
2023/01/11 09:39:50;;;;;;;9.48;2.40;;;18.70;51.20;;;;;;5114308;28;20562;-75
2023/01/11 09:42:38;;;;;;;8.40;2.03;;;18.70;51.20;;;;;;5114335;28;20740;-76
2023/01/11 09:45:13;;;;;;;11.43;2.15;;;18.70;51.10;;;;;;5114306;28;20315;-76
2023/01/11 09:47:45;;;;;;;7.57;1.90;;;18.70;51.20;;;;;;5114708;28;20609;-76
2023/01/11 09:50:18;;;;;;;13.93;2.65;;;18.70;51.10;;;;;;5114342;28;20713;-74
2023/01/11 09:52:51;;;;;;;5.95;2.10;;;18.70;51.10;;;;;;5093706;28;20221;-81
2023/01/11 09:55:24;;;;;;;7.88;2.30;;;18.70;51.10;;;;;;5093815;28;20237;-76
2023/01/11 09:58:20;;;;;;;8.07;2.40;;;18.70;51.10;;;;;;5103930;28;20194;-76
2023/01/11 10:00:55;;;;;;;6.95;2.17;;;18.70;51.00;;;;;;5106993;28;20617;-76
2023/01/11 10:03:53;;;;;;;10.43;2.30;;;18.70;51.00;;;;;;5100306;28;20567;-75
2023/01/11 10:06:25;;;;;;;7.05;2.30;;;18.70;50.80;;;;;;5104327;28;20284;-76
2023/01/11 10:09:13;;;;;;;7.68;2.30;;;18.80;50.90;;;;;;5107160;28;20729;-75
2023/01/11 10:12:01;;;;;;;7.13;2.50;;;18.80;50.90;;;;;;5067615;28;20205;-75
2023/01/11 10:14:53;;;;;;;11.13;2.50;;;18.80;50.90;;;;;;5102619;28;20656;-75
2023/01/11 10:17:41;;;;;;;6.63;2.10;;;18.80;50.90;;;;;;5049101;28;20209;-74
2023/01/11 10:20:26;;;;;;;10.18;2.40;;;18.80;50.90;;;;;;5090886;28;20294;-74
2023/01/11 10:23:03;;;;;;;8.65;2.13;;;18.80;50.90;;;;;;5113009;28;20572;-74
2023/01/11 10:25:36;;;;;;;7.18;2.20;;;18.80;50.90;;;;;;5112229;28;20590;-74
2023/01/11 10:28:12;;;;;;;11.85;3.10;;;18.80;50.80;;;;;;5100414;28;20197;-75
2023/01/11 10:31:00;;;;;;;12.88;2.20;;;18.80;50.90;;;;;;5092492;28;20212;-73
2023/01/11 10:33:48;;;;;;;7.88;2.03;;;18.90;50.90;;;;;;5092071;28;20590;-71
2023/01/11 10:36:34;;;;;;;13.57;2.53;;;18.90;50.90;;;;;;5074304;28;20212;-72
2023/01/11 10:41:58;;;;;;;11.32;2.60;;;19.00;51.00;;;;;;5088336;28;20230;-72
2023/01/11 10:44:34;;;;;;;7.03;2.30;;;18.90;50.90;;;;;;5091932;28;20234;-72
2023/01/11 10:47:05;;;;;;;9.55;2.70;;;19.00;51.00;;;;;;5074180;28;20193;-72
2023/01/11 10:49:43;;;;;;;7.85;2.33;;;19.00;51.00;;;;;;5092470;28;20214;-72
2023/01/11 10:52:33;;;;;;;7.25;2.00;;;19.00;50.90;;;;;;5091710;28;20182;-70
2023/01/11 10:55:03;;;;;;;6.50;2.00;;;19.00;50.80;;;;;;5092516;28;20325;-72
2023/01/11 10:57:49;;;;;;;10.40;2.50;;;19.10;50.90;;;;;;5092343;28;20190;-72
2023/01/11 11:00:26;;;;;;;8.32;2.30;;;19.10;50.80;;;;;;5091687;28;20217;-71
2023/01/11 11:03:22;;;;;;;6.70;2.33;;;19.10;50.80;;;;;;5056402;28;20630;-72
2023/01/11 11:05:58;;;;;;;10.77;2.63;;;19.10;50.60;;;;;;5092675;28;20194;-71
2023/01/11 11:08:33;;;;;;;11.55;2.28;;;19.10;50.60;;;;;;5091161;28;20217;-71
2023/01/11 11:11:03;;;;;;;8.98;2.47;;;19.10;50.70;;;;;;5092445;28;20201;-72
2023/01/11 11:13:42;;;;;;;8.52;2.10;;;19.10;50.60;;;;;;5091583;28;20201;-74
2023/01/11 11:16:25;;;;;;;6.45;2.08;;;19.20;50.60;;;;;;5101647;28;20201;-74
2023/01/11 11:18:57;;;;;;;9.02;2.30;;;19.20;50.50;;;;;;5098731;28;20208;-75
2023/01/11 11:21:27;;;;;;;8.63;2.00;;;19.10;50.40;;;;;;5111546;28;20196;-74
2023/01/11 11:23:59;;;;;;;7.90;2.63;;;19.20;50.40;;;;;;5112419;28;20535;-76
2023/01/11 11:26:36;;;;;;;6.95;2.45;;;19.20;50.60;;;;;;5111889;28;20193;-73
2023/01/11 11:29:06;;;;;;;12.63;2.78;;;19.20;50.30;;;;;;5095085;28;20270;-74
2023/01/11 11:31:36;;;;;;;6.80;1.95;;;19.20;50.30;;;;;;5104432;28;20650;-73
2023/01/11 11:34:13;;;;;;;9.05;2.00;;;19.20;50.30;;;;;;5093334;28;20255;-72
2023/01/11 11:36:42;;;;;;;8.65;2.45;;;19.20;50.30;;;;;;5111824;28;20193;-72
2023/01/11 11:39:18;;;;;;;8.60;2.22;;;19.20;50.90;;;;;;5111229;28;20252;-70
2023/01/11 11:41:48;;;;;;;7.80;2.30;;;19.20;50.30;;;;;;5091162;28;20290;-73
2023/01/11 11:44:21;;;;;;;9.85;2.15;;;19.20;50.20;;;;;;5091537;28;20655;-69
2023/01/11 11:46:59;;;;;;;10.20;2.35;;;19.30;50.30;;;;;;5091303;28;20657;-71
2023/01/11 11:49:28;;;;;;;9.35;2.22;;;19.30;50.30;;;;;;5091444;28;20216;-71
2023/01/11 11:51:56;;;;;;;11.55;2.58;;;19.30;50.40;;;;;;5091082;28;20210;-70
2023/01/11 11:54:28;;;;;;;11.48;2.55;;;19.30;50.30;;;;;;5090739;28;20263;-71
2023/01/11 11:56:57;;;;;;;13.82;2.50;;;19.40;50.40;;;;;;5073243;28;20198;-73
2023/01/11 11:59:29;;;;;;;6.35;1.90;;;19.40;50.40;;;;;;5091772;28;20224;-73
2023/01/11 12:02:00;;;;;;;8.35;2.55;;;19.40;50.40;;;;;;5090724;28;20213;-74
2023/01/11 12:04:46;;;;;;;7.63;2.72;;;19.30;50.40;;;;;;5090523;28;20332;-73
2023/01/11 12:07:16;;;;;;;11.45;2.55;;;19.30;50.10;;;;;;5096697;28;20604;-74
2023/01/11 12:09:47;;;;;;;8.80;2.38;;;19.30;50.30;;;;;;5111728;28;20220;-73
2023/01/11 12:12:18;;;;;;;8.70;2.33;;;19.30;50.10;;;;;;5111124;28;20193;-73
2023/01/11 12:15:20;;;;;;;8.93;2.53;;;19.30;50.10;;;;;;5111392;28;20978;-73
2023/01/11 12:17:48;;;;;;;7.88;2.70;;;19.30;50.00;;;;;;5090036;28;20201;-73
2023/01/11 12:20:31;;;;;;;8.13;2.53;;;19.30;50.00;;;;;;5111733;28;20217;-73
2023/01/11 12:23:15;;;;;;;7.50;2.45;;;19.30;50.00;;;;;;5111394;28;20220;-73
2023/01/11 12:26:00;;;;;;;11.38;2.50;;;19.30;50.00;;;;;;5106746;28;20694;-74
2023/01/11 12:28:46;;;;;;;8.68;2.63;;;19.30;49.90;;;;;;5102321;28;20220;-74
2023/01/11 12:31:20;;;;;;;14.05;2.80;;;19.20;49.90;;;;;;5091876;28;20669;-73
2023/01/11 12:33:53;;;;;;;10.55;2.75;;;19.30;50.10;;;;;;5094741;28;20660;-73
2023/01/11 12:36:32;;;;;;;6.80;2.22;;;19.30;50.10;;;;;;5094624;28;20304;-73
2023/01/11 12:39:10;;;;;;;7.97;2.58;;;19.20;49.90;;;;;;5095405;28;20744;-72
2023/01/11 12:41:56;;;;;;;7.82;2.25;;;19.20;49.90;;;;;;5100278;27;20214;-73
2023/01/11 12:44:56;;;;;;;8.55;2.30;;;19.20;50.00;;;;;;5114369;28;20250;-74
2023/01/11 12:48:09;;;;;;;11.07;2.72;;;19.20;49.90;;;;;;5114655;28;20636;-73
2023/01/11 12:50:49;;;;;;;8.23;2.30;;;19.20;49.80;;;;;;5029851;28;20231;-74
2023/01/11 12:53:31;;;;;;;10.07;2.78;;;19.20;50.10;;;;;;5096654;28;20714;-73
2023/01/11 12:56:15;;;;;;;13.38;2.83;;;19.20;49.90;;;;;;5094181;28;20194;-73
2023/01/11 12:58:48;;;;;;;10.18;2.53;;;19.30;50.10;;;;;;5093630;28;20276;-73
2023/01/11 13:01:27;;;;;;;9.07;2.20;;;19.30;50.10;;;;;;5093533;28;20636;-74
2023/01/11 13:04:30;;;;;;;12.20;2.47;;;19.30;50.10;;;;;;5094385;28;20235;-74
2023/01/11 13:07:09;;;;;;;8.50;2.53;;;19.30;49.80;;;;;;5112864;27;20668;-74
2023/01/11 13:09:50;;;;;;;10.55;2.83;;;19.30;49.90;;;;;;5107000;28;20596;-74
2023/01/11 13:12:22;;;;;;;14.00;3.00;;;19.30;49.80;;;;;;5099567;28;20200;-73
2023/01/11 13:15:03;;;;;;;9.40;2.53;;;19.30;49.80;;;;;;5113148;28;20229;-74
2023/01/11 13:17:38;;;;;;;16.38;3.03;;;19.30;50.40;;;;;;5092114;28;20190;-73
2023/01/11 13:20:19;;;;;;;11.98;3.05;;;19.30;49.70;;;;;;5094482;28;20213;-73
2023/01/11 13:22:51;;;;;;;13.50;2.42;;;19.30;49.60;;;;;;5113206;28;20706;-73
2023/01/11 13:25:24;;;;;;;14.43;3.03;;;19.30;49.80;;;;;;5105269;28;20220;-73
2023/01/11 13:27:52;;;;;;;10.63;2.50;;;19.30;49.50;;;;;;5095997;28;20281;-73
2023/01/11 13:30:23;;;;;;;14.82;3.13;;;19.30;49.70;;;;;;5100049;28;20213;-74
2023/01/11 13:32:55;;;;;;;12.70;2.85;;;19.30;49.80;;;;;;5102399;28;20189;-73